sensor_id;sensor_type;location;lat;lon;timestamp;P1;durP1;ratioP1;P2;durP2;ratioP2
27303;SDS011;14791;52.392;13.092;2022-07-31T00:01:36;4.12;;;3.95;;
27303;SDS011;14791;52.392;13.092;2022-07-31T00:04:05;2.77;;;2.67;;
27303;SDS011;14791;52.392;13.092;2022-07-31T00:06:34;2.85;;;2.75;;
27303;SDS011;14791;52.392;13.092;2022-07-31T00:09:03;2.62;;;2.52;;
27303;SDS011;14791;52.392;13.092;2022-07-31T00:11:32;2.08;;;2.00;;
27303;SDS011;14791;52.392;13.092;2022-07-31T00:14:01;2.95;;;2.80;;
27303;SDS011;14791;52.392;13.092;2022-07-31T00:16:30;1.65;;;1.60;;
27303;SDS011;14791;52.392;13.092;2022-07-31T00:18:59;2.37;;;2.37;;
27303;SDS011;14791;52.392;13.092;2022-07-31T00:21:28;2.37;;;2.37;;
27303;SDS011;14791;52.392;13.092;2022-07-31T00:23:56;2.17;;;2.17;;
27303;SDS011;14791;52.392;13.092;2022-07-31T00:26:25;2.47;;;2.37;;
27303;SDS011;14791;52.392;13.092;2022-07-31T00:28:55;2.52;;;2.42;;
27303;SDS011;14791;52.392;13.092;2022-07-31T00:31:24;2.40;;;2.40;;
27303;SDS011;14791;52.392;13.092;2022-07-31T00:33:53;2.10;;;2.10;;
27303;SDS011;14791;52.392;13.092;2022-07-31T00:36:22;2.25;;;2.15;;
27303;SDS011;14791;52.392;13.092;2022-07-31T00:38:50;2.10;;;2.10;;
27303;SDS011;14791;52.392;13.092;2022-07-31T00:41:19;2.30;;;2.20;;
27303;SDS011;14791;52.392;13.092;2022-07-31T00:43:48;1.82;;;1.82;;
27303;SDS011;14791;52.392;13.092;2022-07-31T00:46:17;1.65;;;1.65;;
27303;SDS011;14791;52.392;13.092;2022-07-31T00:48:46;2.10;;;2.10;;
27303;SDS011;14791;52.392;13.092;2022-07-31T00:51:15;1.92;;;1.92;;
27303;SDS011;14791;52.392;13.092;2022-07-31T00:53:44;1.77;;;1.77;;
27303;SDS011;14791;52.392;13.092;2022-07-31T00:56:13;2.12;;;2.12;;
27303;SDS011;14791;52.392;13.092;2022-07-31T00:58:42;1.87;;;1.85;;
27303;SDS011;14791;52.392;13.092;2022-07-31T01:01:11;1.82;;;1.82;;
27303;SDS011;14791;52.392;13.092;2022-07-31T01:03:40;1.67;;;1.67;;
27303;SDS011;14791;52.392;13.092;2022-07-31T01:06:08;2.05;;;1.95;;
27303;SDS011;14791;52.392;13.092;2022-07-31T01:08:39;2.10;;;2.00;;
27303;SDS011;14791;52.392;13.092;2022-07-31T01:13:55;3.70;;;2.10;;
27303;SDS011;14791;52.392;13.092;2022-07-31T01:16:32;2.10;;;2.10;;
27303;SDS011;14791;52.392;13.092;2022-07-31T01:19:10;2.10;;;1.95;;
27303;SDS011;14791;52.392;13.092;2022-07-31T01:21:48;2.90;;;1.95;;
27303;SDS011;14791;52.392;13.092;2022-07-31T01:24:29;2.47;;;2.00;;
27303;SDS011;14791;52.392;13.092;2022-07-31T01:27:12;2.05;;;2.05;;
27303;SDS011;14791;52.392;13.092;2022-07-31T01:29:45;1.77;;;1.77;;
27303;SDS011;14791;52.392;13.092;2022-07-31T01:32:24;2.00;;;1.90;;
27303;SDS011;14791;52.392;13.092;2022-07-31T01:34:56;1.70;;;1.70;;
27303;SDS011;14791;52.392;13.092;2022-07-31T01:37:59;1.80;;;1.80;;
27303;SDS011;14791;52.392;13.092;2022-07-31T01:40:10;2.20;;;2.10;;
27303;SDS011;14791;52.392;13.092;2022-07-31T01:42:46;1.98;;;1.98;;
27303;SDS011;14791;52.392;13.092;2022-07-31T01:45:17;1.95;;;1.95;;
27303;SDS011;14791;52.392;13.092;2022-07-31T01:47:47;2.00;;;2.00;;
27303;SDS011;14791;52.392;13.092;2022-07-31T01:50:18;1.75;;;1.75;;
27303;SDS011;14791;52.392;13.092;2022-07-31T01:52:48;1.85;;;1.85;;
27303;SDS011;14791;52.392;13.092;2022-07-31T01:55:18;2.10;;;2.10;;
27303;SDS011;14791;52.392;13.092;2022-07-31T01:57:48;2.10;;;2.10;;
27303;SDS011;14791;52.392;13.092;2022-07-31T02:00:18;1.75;;;1.75;;
27303;SDS011;14791;52.392;13.092;2022-07-31T02:02:47;2.00;;;2.00;;
27303;SDS011;14791;52.392;13.092;2022-07-31T02:05:18;1.82;;;1.82;;
27303;SDS011;14791;52.392;13.092;2022-07-31T02:07:50;1.90;;;1.90;;
27303;SDS011;14791;52.392;13.092;2022-07-31T02:10:21;1.95;;;1.85;;
27303;SDS011;14791;52.392;13.092;2022-07-31T02:12:53;2.05;;;2.02;;
27303;SDS011;14791;52.392;13.092;2022-07-31T02:15:22;1.80;;;1.80;;
27303;SDS011;14791;52.392;13.092;2022-07-31T02:17:52;1.92;;;1.92;;
27303;SDS011;14791;52.392;13.092;2022-07-31T02:20:25;1.95;;;1.95;;
27303;SDS011;14791;52.392;13.092;2022-07-31T02:22:56;2.20;;;2.20;;
27303;SDS011;14791;52.392;13.092;2022-07-31T02:25:27;1.95;;;1.95;;
27303;SDS011;14791;52.392;13.092;2022-07-31T02:28:01;1.87;;;1.80;;
27303;SDS011;14791;52.392;13.092;2022-07-31T02:30:32;2.40;;;2.30;;
27303;SDS011;14791;52.392;13.092;2022-07-31T02:33:02;2.58;;;2.47;;
27303;SDS011;14791;52.392;13.092;2022-07-31T02:35:33;1.92;;;1.92;;
27303;SDS011;14791;52.392;13.092;2022-07-31T02:38:04;2.00;;;2.00;;
27303;SDS011;14791;52.392;13.092;2022-07-31T02:40:34;2.20;;;2.20;;
27303;SDS011;14791;52.392;13.092;2022-07-31T02:43:05;2.37;;;2.27;;
27303;SDS011;14791;52.392;13.092;2022-07-31T02:45:36;2.52;;;2.42;;
27303;SDS011;14791;52.392;13.092;2022-07-31T02:48:06;2.37;;;2.27;;
27303;SDS011;14791;52.392;13.092;2022-07-31T02:50:37;2.00;;;2.00;;
27303;SDS011;14791;52.392;13.092;2022-07-31T02:53:07;1.65;;;1.65;;
27303;SDS011;14791;52.392;13.092;2022-07-31T02:55:36;2.15;;;2.05;;
27303;SDS011;14791;52.392;13.092;2022-07-31T02:58:07;2.22;;;2.20;;
27303;SDS011;14791;52.392;13.092;2022-07-31T03:00:35;2.40;;;2.30;;
27303;SDS011;14791;52.392;13.092;2022-07-31T03:03:04;2.45;;;2.35;;
27303;SDS011;14791;52.392;13.092;2022-07-31T03:05:34;2.50;;;2.40;;
27303;SDS011;14791;52.392;13.092;2022-07-31T03:08:03;2.17;;;2.10;;
27303;SDS011;14791;52.392;13.092;2022-07-31T03:10:34;2.05;;;2.05;;
27303;SDS011;14791;52.392;13.092;2022-07-31T03:13:04;2.52;;;2.42;;
27303;SDS011;14791;52.392;13.092;2022-07-31T03:15:34;2.47;;;2.37;;
27303;SDS011;14791;52.392;13.092;2022-07-31T03:18:05;2.45;;;2.45;;
27303;SDS011;14791;52.392;13.092;2022-07-31T03:20:39;2.05;;;2.05;;
27303;SDS011;14791;52.392;13.092;2022-07-31T03:23:10;2.45;;;2.30;;
27303;SDS011;14791;52.392;13.092;2022-07-31T03:25:48;2.30;;;2.20;;
27303;SDS011;14791;52.392;13.092;2022-07-31T03:28:18;2.30;;;2.30;;
27303;SDS011;14791;52.392;13.092;2022-07-31T03:30:51;2.33;;;2.22;;
27303;SDS011;14791;52.392;13.092;2022-07-31T03:33:21;2.25;;;2.15;;
27303;SDS011;14791;52.392;13.092;2022-07-31T03:35:50;2.08;;;1.98;;
27303;SDS011;14791;52.392;13.092;2022-07-31T03:38:20;2.62;;;2.55;;
27303;SDS011;14791;52.392;13.092;2022-07-31T03:40:49;2.10;;;2.10;;
27303;SDS011;14791;52.392;13.092;2022-07-31T03:43:18;2.42;;;2.40;;
27303;SDS011;14791;52.392;13.092;2022-07-31T03:45:49;2.77;;;2.67;;
27303;SDS011;14791;52.392;13.092;2022-07-31T03:48:20;2.33;;;2.33;;
27303;SDS011;14791;52.392;13.092;2022-07-31T03:50:49;2.20;;;2.20;;
27303;SDS011;14791;52.392;13.092;2022-07-31T03:53:18;2.30;;;2.20;;
27303;SDS011;14791;52.392;13.092;2022-07-31T03:55:49;2.50;;;2.27;;
27303;SDS011;14791;52.392;13.092;2022-07-31T03:58:18;2.37;;;2.35;;
27303;SDS011;14791;52.392;13.092;2022-07-31T04:00:49;2.65;;;2.58;;
27303;SDS011;14791;52.392;13.092;2022-07-31T04:03:19;2.70;;;2.50;;
27303;SDS011;14791;52.392;13.092;2022-07-31T04:05:52;2.60;;;2.50;;
27303;SDS011;14791;52.392;13.092;2022-07-31T04:08:22;2.20;;;2.10;;
27303;SDS011;14791;52.392;13.092;2022-07-31T04:10:51;2.65;;;2.65;;
27303;SDS011;14791;52.392;13.092;2022-07-31T04:13:22;2.58;;;2.58;;
27303;SDS011;14791;52.392;13.092;2022-07-31T04:15:51;2.70;;;2.70;;
27303;SDS011;14791;52.392;13.092;2022-07-31T04:18:20;2.70;;;2.60;;
27303;SDS011;14791;52.392;13.092;2022-07-31T04:20:49;2.58;;;2.42;;
27303;SDS011;14791;52.392;13.092;2022-07-31T04:23:18;2.85;;;2.75;;
27303;SDS011;14791;52.392;13.092;2022-07-31T04:26:05;2.50;;;2.50;;
27303;SDS011;14791;52.392;13.092;2022-07-31T04:28:36;2.40;;;2.30;;
27303;SDS011;14791;52.392;13.092;2022-07-31T04:31:04;2.77;;;2.67;;
27303;SDS011;14791;52.392;13.092;2022-07-31T04:33:35;2.47;;;2.37;;
27303;SDS011;14791;52.392;13.092;2022-07-31T04:36:04;2.20;;;2.20;;
27303;SDS011;14791;52.392;13.092;2022-07-31T04:38:33;2.52;;;2.42;;
27303;SDS011;14791;52.392;13.092;2022-07-31T04:41:02;3.05;;;2.95;;
27303;SDS011;14791;52.392;13.092;2022-07-31T04:43:31;2.55;;;2.45;;
27303;SDS011;14791;52.392;13.092;2022-07-31T04:46:00;2.83;;;2.65;;
27303;SDS011;14791;52.392;13.092;2022-07-31T04:48:28;2.85;;;2.75;;
27303;SDS011;14791;52.392;13.092;2022-07-31T04:50:57;3.20;;;2.47;;
27303;SDS011;14791;52.392;13.092;2022-07-31T04:53:26;2.40;;;2.30;;
27303;SDS011;14791;52.392;13.092;2022-07-31T04:55:56;2.60;;;2.47;;
27303;SDS011;14791;52.392;13.092;2022-07-31T04:58:43;3.05;;;2.80;;
27303;SDS011;14791;52.392;13.092;2022-07-31T05:01:12;2.65;;;2.45;;
27303;SDS011;14791;52.392;13.092;2022-07-31T05:03:41;2.80;;;2.70;;
27303;SDS011;14791;52.392;13.092;2022-07-31T05:06:10;2.52;;;2.47;;
27303;SDS011;14791;52.392;13.092;2022-07-31T05:08:40;2.62;;;2.52;;
27303;SDS011;14791;52.392;13.092;2022-07-31T05:11:09;2.65;;;2.55;;
27303;SDS011;14791;52.392;13.092;2022-07-31T05:13:51;2.52;;;2.52;;
27303;SDS011;14791;52.392;13.092;2022-07-31T05:16:22;2.58;;;2.47;;
27303;SDS011;14791;52.392;13.092;2022-07-31T05:18:52;3.90;;;2.47;;
27303;SDS011;14791;52.392;13.092;2022-07-31T05:21:42;2.52;;;2.42;;
27303;SDS011;14791;52.392;13.092;2022-07-31T05:24:22;2.65;;;2.60;;
27303;SDS011;14791;52.392;13.092;2022-07-31T05:26:56;2.30;;;2.30;;
27303;SDS011;14791;52.392;13.092;2022-07-31T05:29:25;2.80;;;2.70;;
27303;SDS011;14791;52.392;13.092;2022-07-31T05:31:54;2.87;;;2.58;;
27303;SDS011;14791;52.392;13.092;2022-07-31T05:34:23;2.62;;;2.60;;
27303;SDS011;14791;52.392;13.092;2022-07-31T05:36:52;2.45;;;2.45;;
27303;SDS011;14791;52.392;13.092;2022-07-31T05:39:21;2.45;;;2.45;;
27303;SDS011;14791;52.392;13.092;2022-07-31T05:42:08;2.47;;;2.37;;
27303;SDS011;14791;52.392;13.092;2022-07-31T05:44:55;2.30;;;2.22;;
27303;SDS011;14791;52.392;13.092;2022-07-31T05:47:24;2.75;;;2.65;;
27303;SDS011;14791;52.392;13.092;2022-07-31T05:49:54;2.72;;;2.62;;
27303;SDS011;14791;52.392;13.092;2022-07-31T05:52:23;3.10;;;2.90;;
27303;SDS011;14791;52.392;13.092;2022-07-31T05:54:54;2.20;;;2.20;;
27303;SDS011;14791;52.392;13.092;2022-07-31T05:57:40;3.12;;;3.02;;
27303;SDS011;14791;52.392;13.092;2022-07-31T06:00:10;2.70;;;2.67;;
27303;SDS011;14791;52.392;13.092;2022-07-31T06:02:41;2.67;;;2.52;;
27303;SDS011;14791;52.392;13.092;2022-07-31T06:05:24;2.25;;;2.25;;
27303;SDS011;14791;52.392;13.092;2022-07-31T06:07:54;2.42;;;2.40;;
27303;SDS011;14791;52.392;13.092;2022-07-31T06:10:24;2.25;;;2.25;;
27303;SDS011;14791;52.392;13.092;2022-07-31T06:12:54;2.17;;;2.17;;
27303;SDS011;14791;52.392;13.092;2022-07-31T06:15:23;2.50;;;2.40;;
27303;SDS011;14791;52.392;13.092;2022-07-31T06:17:52;2.52;;;2.42;;
27303;SDS011;14791;52.392;13.092;2022-07-31T06:20:26;2.90;;;2.80;;
27303;SDS011;14791;52.392;13.092;2022-07-31T06:22:55;2.60;;;2.40;;
27303;SDS011;14791;52.392;13.092;2022-07-31T06:25:26;2.70;;;2.60;;
27303;SDS011;14791;52.392;13.092;2022-07-31T06:27:54;2.62;;;2.58;;
27303;SDS011;14791;52.392;13.092;2022-07-31T06:30:26;2.47;;;2.37;;
27303;SDS011;14791;52.392;13.092;2022-07-31T06:32:54;2.42;;;2.33;;
27303;SDS011;14791;52.392;13.092;2022-07-31T06:35:23;2.27;;;2.27;;
27303;SDS011;14791;52.392;13.092;2022-07-31T06:38:12;2.30;;;2.20;;
27303;SDS011;14791;52.392;13.092;2022-07-31T06:40:49;2.02;;;2.02;;
27303;SDS011;14791;52.392;13.092;2022-07-31T06:43:20;2.50;;;2.45;;
27303;SDS011;14791;52.392;13.092;2022-07-31T06:46:00;2.50;;;2.50;;
27303;SDS011;14791;52.392;13.092;2022-07-31T06:48:47;2.35;;;2.35;;
27303;SDS011;14791;52.392;13.092;2022-07-31T06:51:17;2.40;;;2.40;;
27303;SDS011;14791;52.392;13.092;2022-07-31T06:53:47;2.12;;;2.02;;
27303;SDS011;14791;52.392;13.092;2022-07-31T06:56:16;2.65;;;2.55;;
27303;SDS011;14791;52.392;13.092;2022-07-31T06:58:45;2.55;;;2.45;;
27303;SDS011;14791;52.392;13.092;2022-07-31T07:01:14;2.33;;;2.33;;
27303;SDS011;14791;52.392;13.092;2022-07-31T07:03:44;2.10;;;2.10;;
27303;SDS011;14791;52.392;13.092;2022-07-31T07:06:13;2.50;;;2.40;;
27303;SDS011;14791;52.392;13.092;2022-07-31T07:08:42;2.00;;;2.00;;
27303;SDS011;14791;52.392;13.092;2022-07-31T07:11:12;2.83;;;2.67;;
27303;SDS011;14791;52.392;13.092;2022-07-31T07:13:41;2.42;;;2.33;;
27303;SDS011;14791;52.392;13.092;2022-07-31T07:16:12;3.42;;;2.05;;
27303;SDS011;14791;52.392;13.092;2022-07-31T07:18:42;2.40;;;2.30;;
27303;SDS011;14791;52.392;13.092;2022-07-31T07:21:11;2.47;;;2.37;;
27303;SDS011;14791;52.392;13.092;2022-07-31T07:23:41;2.10;;;2.08;;
27303;SDS011;14791;52.392;13.092;2022-07-31T07:26:11;2.00;;;2.00;;
27303;SDS011;14791;52.392;13.092;2022-07-31T07:28:40;3.77;;;2.27;;
27303;SDS011;14791;52.392;13.092;2022-07-31T07:31:09;2.30;;;2.20;;
27303;SDS011;14791;52.392;13.092;2022-07-31T07:33:38;1.87;;;1.82;;
27303;SDS011;14791;52.392;13.092;2022-07-31T07:36:10;1.85;;;1.85;;
27303;SDS011;14791;52.392;13.092;2022-07-31T07:38:39;1.82;;;1.82;;
27303;SDS011;14791;52.392;13.092;2022-07-31T07:41:09;1.90;;;1.90;;
27303;SDS011;14791;52.392;13.092;2022-07-31T07:43:38;2.00;;;2.00;;
27303;SDS011;14791;52.392;13.092;2022-07-31T07:46:07;2.33;;;2.25;;
27303;SDS011;14791;52.392;13.092;2022-07-31T07:48:38;2.10;;;2.10;;
27303;SDS011;14791;52.392;13.092;2022-07-31T07:51:14;2.40;;;2.30;;
27303;SDS011;14791;52.392;13.092;2022-07-31T07:53:50;2.08;;;2.08;;
27303;SDS011;14791;52.392;13.092;2022-07-31T07:56:39;2.87;;;2.15;;
27303;SDS011;14791;52.392;13.092;2022-07-31T07:59:11;2.08;;;2.08;;
27303;SDS011;14791;52.392;13.092;2022-07-31T08:01:42;1.95;;;1.95;;
27303;SDS011;14791;52.392;13.092;2022-07-31T08:04:16;2.42;;;2.42;;
27303;SDS011;14791;52.392;13.092;2022-07-31T08:06:45;2.20;;;2.20;;
27303;SDS011;14791;52.392;13.092;2022-07-31T08:09:15;2.30;;;2.30;;
27303;SDS011;14791;52.392;13.092;2022-07-31T08:11:50;2.33;;;2.30;;
27303;SDS011;14791;52.392;13.092;2022-07-31T08:14:23;2.22;;;2.17;;
27303;SDS011;14791;52.392;13.092;2022-07-31T08:17:00;2.12;;;2.12;;
27303;SDS011;14791;52.392;13.092;2022-07-31T08:19:29;2.00;;;2.00;;
27303;SDS011;14791;52.392;13.092;2022-07-31T08:21:58;1.87;;;1.87;;
27303;SDS011;14791;52.392;13.092;2022-07-31T08:24:27;2.08;;;1.98;;
27303;SDS011;14791;52.392;13.092;2022-07-31T08:26:56;1.82;;;1.82;;
27303;SDS011;14791;52.392;13.092;2022-07-31T08:29:43;2.00;;;2.00;;
27303;SDS011;14791;52.392;13.092;2022-07-31T08:32:14;2.67;;;2.47;;
27303;SDS011;14791;52.392;13.092;2022-07-31T08:34:51;2.55;;;2.45;;
27303;SDS011;14791;52.392;13.092;2022-07-31T08:37:21;2.12;;;2.12;;
27303;SDS011;14791;52.392;13.092;2022-07-31T08:39:50;2.30;;;2.30;;
27303;SDS011;14791;52.392;13.092;2022-07-31T08:42:19;1.90;;;1.90;;
27303;SDS011;14791;52.392;13.092;2022-07-31T08:44:48;2.62;;;2.42;;
27303;SDS011;14791;52.392;13.092;2022-07-31T08:47:19;1.87;;;1.87;;
27303;SDS011;14791;52.392;13.092;2022-07-31T08:49:51;2.25;;;2.15;;
27303;SDS011;14791;52.392;13.092;2022-07-31T08:52:22;1.87;;;1.87;;
27303;SDS011;14791;52.392;13.092;2022-07-31T08:55:05;2.10;;;2.10;;
27303;SDS011;14791;52.392;13.092;2022-07-31T08:57:34;1.90;;;1.80;;
27303;SDS011;14791;52.392;13.092;2022-07-31T09:00:07;2.15;;;2.05;;
27303;SDS011;14791;52.392;13.092;2022-07-31T09:02:39;2.00;;;2.00;;
27303;SDS011;14791;52.392;13.092;2022-07-31T09:05:10;2.52;;;2.42;;
27303;SDS011;14791;52.392;13.092;2022-07-31T09:07:39;2.33;;;2.22;;
27303;SDS011;14791;52.392;13.092;2022-07-31T09:10:21;2.58;;;2.47;;
27303;SDS011;14791;52.392;13.092;2022-07-31T09:13:10;2.02;;;2.02;;
27303;SDS011;14791;52.392;13.092;2022-07-31T09:15:32;1.67;;;1.67;;
27303;SDS011;14791;52.392;13.092;2022-07-31T09:18:02;2.42;;;2.33;;
27303;SDS011;14791;52.392;13.092;2022-07-31T09:20:32;1.90;;;1.90;;
27303;SDS011;14791;52.392;13.092;2022-07-31T09:23:07;2.12;;;2.12;;
27303;SDS011;14791;52.392;13.092;2022-07-31T09:25:51;1.92;;;1.82;;
27303;SDS011;14791;52.392;13.092;2022-07-31T09:28:31;1.95;;;1.85;;
27303;SDS011;14791;52.392;13.092;2022-07-31T09:31:06;2.05;;;1.95;;
27303;SDS011;14791;52.392;13.092;2022-07-31T09:33:49;2.02;;;2.02;;
27303;SDS011;14791;52.392;13.092;2022-07-31T09:36:23;2.17;;;2.08;;
27303;SDS011;14791;52.392;13.092;2022-07-31T09:38:53;2.15;;;2.02;;
27303;SDS011;14791;52.392;13.092;2022-07-31T09:41:34;1.95;;;1.95;;
27303;SDS011;14791;52.392;13.092;2022-07-31T09:44:04;2.55;;;2.45;;
27303;SDS011;14791;52.392;13.092;2022-07-31T09:46:43;1.90;;;1.80;;
27303;SDS011;14791;52.392;13.092;2022-07-31T09:49:14;2.40;;;2.20;;
27303;SDS011;14791;52.392;13.092;2022-07-31T09:51:45;2.05;;;1.95;;
27303;SDS011;14791;52.392;13.092;2022-07-31T09:54:23;2.02;;;2.00;;
27303;SDS011;14791;52.392;13.092;2022-07-31T09:57:11;2.12;;;2.02;;
27303;SDS011;14791;52.392;13.092;2022-07-31T09:59:43;2.05;;;1.95;;
27303;SDS011;14791;52.392;13.092;2022-07-31T10:02:12;2.47;;;2.22;;
27303;SDS011;14791;52.392;13.092;2022-07-31T10:04:44;2.08;;;1.82;;
27303;SDS011;14791;52.392;13.092;2022-07-31T10:07:16;2.20;;;2.10;;
27303;SDS011;14791;52.392;13.092;2022-07-31T10:09:46;2.22;;;2.22;;
27303;SDS011;14791;52.392;13.092;2022-07-31T10:12:22;2.05;;;2.05;;
27303;SDS011;14791;52.392;13.092;2022-07-31T10:14:55;2.02;;;1.92;;
27303;SDS011;14791;52.392;13.092;2022-07-31T10:17:33;2.25;;;2.15;;
27303;SDS011;14791;52.392;13.092;2022-07-31T10:20:14;1.90;;;1.80;;
27303;SDS011;14791;52.392;13.092;2022-07-31T10:23:00;2.00;;;1.90;;
27303;SDS011;14791;52.392;13.092;2022-07-31T10:25:32;2.12;;;2.02;;
27303;SDS011;14791;52.392;13.092;2022-07-31T10:28:05;2.00;;;2.00;;
27303;SDS011;14791;52.392;13.092;2022-07-31T10:30:34;2.08;;;2.08;;
27303;SDS011;14791;52.392;13.092;2022-07-31T10:33:04;2.15;;;2.15;;
27303;SDS011;14791;52.392;13.092;2022-07-31T10:35:43;2.52;;;2.40;;
27303;SDS011;14791;52.392;13.092;2022-07-31T10:38:19;2.10;;;2.10;;
27303;SDS011;14791;52.392;13.092;2022-07-31T10:41:09;2.12;;;1.90;;
27303;SDS011;14791;52.392;13.092;2022-07-31T10:43:42;3.10;;;3.00;;
27303;SDS011;14791;52.392;13.092;2022-07-31T10:46:28;2.42;;;2.33;;
27303;SDS011;14791;52.392;13.092;2022-07-31T10:49:04;2.00;;;2.00;;
27303;SDS011;14791;52.392;13.092;2022-07-31T10:51:50;2.27;;;2.17;;
27303;SDS011;14791;52.392;13.092;2022-07-31T10:54:39;2.35;;;2.25;;
27303;SDS011;14791;52.392;13.092;2022-07-31T10:57:21;2.02;;;1.98;;
27303;SDS011;14791;52.392;13.092;2022-07-31T11:00:09;2.00;;;1.90;;
27303;SDS011;14791;52.392;13.092;2022-07-31T11:02:59;1.90;;;1.90;;
27303;SDS011;14791;52.392;13.092;2022-07-31T11:05:51;2.25;;;2.15;;
27303;SDS011;14791;52.392;13.092;2022-07-31T11:08:51;2.20;;;2.10;;
27303;SDS011;14791;52.392;13.092;2022-07-31T11:11:36;2.12;;;2.00;;
27303;SDS011;14791;52.392;13.092;2022-07-31T11:14:06;1.90;;;1.80;;
27303;SDS011;14791;52.392;13.092;2022-07-31T11:16:52;1.70;;;1.70;;
27303;SDS011;14791;52.392;13.092;2022-07-31T11:19:39;1.77;;;1.77;;
27303;SDS011;14791;52.392;13.092;2022-07-31T11:22:09;1.75;;;1.75;;
27303;SDS011;14791;52.392;13.092;2022-07-31T11:24:40;1.70;;;1.70;;
27303;SDS011;14791;52.392;13.092;2022-07-31T11:27:09;2.15;;;2.08;;
27303;SDS011;14791;52.392;13.092;2022-07-31T11:29:38;1.77;;;1.75;;
27303;SDS011;14791;52.392;13.092;2022-07-31T11:34:47;1.72;;;1.72;;
27303;SDS011;14791;52.392;13.092;2022-07-31T11:37:21;1.70;;;1.62;;
27303;SDS011;14791;52.392;13.092;2022-07-31T11:39:52;1.77;;;1.77;;
27303;SDS011;14791;52.392;13.092;2022-07-31T11:42:22;1.90;;;1.80;;
27303;SDS011;14791;52.392;13.092;2022-07-31T11:45:02;1.57;;;1.52;;
27303;SDS011;14791;52.392;13.092;2022-07-31T11:47:39;1.60;;;1.60;;
27303;SDS011;14791;52.392;13.092;2022-07-31T11:50:08;1.50;;;1.42;;
27303;SDS011;14791;52.392;13.092;2022-07-31T11:52:39;1.70;;;1.70;;
27303;SDS011;14791;52.392;13.092;2022-07-31T11:55:13;1.65;;;1.65;;
27303;SDS011;14791;52.392;13.092;2022-07-31T11:57:43;1.47;;;1.47;;
27303;SDS011;14791;52.392;13.092;2022-07-31T12:00:12;1.80;;;1.70;;
27303;SDS011;14791;52.392;13.092;2022-07-31T12:02:43;1.40;;;1.40;;
27303;SDS011;14791;52.392;13.092;2022-07-31T12:05:13;1.40;;;1.40;;
27303;SDS011;14791;52.392;13.092;2022-07-31T12:07:42;1.80;;;1.70;;
27303;SDS011;14791;52.392;13.092;2022-07-31T12:10:11;1.67;;;1.67;;
27303;SDS011;14791;52.392;13.092;2022-07-31T12:12:41;1.72;;;1.60;;
27303;SDS011;14791;52.392;13.092;2022-07-31T12:15:17;1.40;;;1.40;;
27303;SDS011;14791;52.392;13.092;2022-07-31T12:17:58;1.52;;;1.52;;
27303;SDS011;14791;52.392;13.092;2022-07-31T12:20:20;1.47;;;1.47;;
27303;SDS011;14791;52.392;13.092;2022-07-31T12:22:55;1.30;;;1.30;;
27303;SDS011;14791;52.392;13.092;2022-07-31T12:25:27;4.25;;;1.60;;
27303;SDS011;14791;52.392;13.092;2022-07-31T12:27:57;1.72;;;1.65;;
27303;SDS011;14791;52.392;13.092;2022-07-31T12:30:26;1.65;;;1.57;;
27303;SDS011;14791;52.392;13.092;2022-07-31T12:33:02;1.45;;;1.45;;
27303;SDS011;14791;52.392;13.092;2022-07-31T12:35:39;1.72;;;1.15;;
27303;SDS011;14791;52.392;13.092;2022-07-31T12:38:09;1.10;;;1.10;;
27303;SDS011;14791;52.392;13.092;2022-07-31T12:40:40;1.70;;;1.60;;
27303;SDS011;14791;52.392;13.092;2022-07-31T12:43:09;1.40;;;1.40;;
27303;SDS011;14791;52.392;13.092;2022-07-31T12:45:38;1.55;;;1.55;;
27303;SDS011;14791;52.392;13.092;2022-07-31T12:48:07;1.27;;;1.27;;
27303;SDS011;14791;52.392;13.092;2022-07-31T12:50:36;1.15;;;1.15;;
27303;SDS011;14791;52.392;13.092;2022-07-31T12:53:04;1.42;;;1.42;;
27303;SDS011;14791;52.392;13.092;2022-07-31T12:55:33;1.45;;;1.45;;
27303;SDS011;14791;52.392;13.092;2022-07-31T12:58:02;1.50;;;1.50;;
27303;SDS011;14791;52.392;13.092;2022-07-31T13:00:31;1.35;;;1.32;;
27303;SDS011;14791;52.392;13.092;2022-07-31T13:03:00;1.40;;;1.40;;
27303;SDS011;14791;52.392;13.092;2022-07-31T13:05:29;1.12;;;1.12;;
27303;SDS011;14791;52.392;13.092;2022-07-31T13:07:58;1.10;;;1.10;;
27303;SDS011;14791;52.392;13.092;2022-07-31T13:10:26;1.17;;;1.17;;
27303;SDS011;14791;52.392;13.092;2022-07-31T13:12:55;1.30;;;1.30;;
27303;SDS011;14791;52.392;13.092;2022-07-31T13:15:25;1.27;;;1.27;;
27303;SDS011;14791;52.392;13.092;2022-07-31T13:17:57;1.15;;;1.15;;
27303;SDS011;14791;52.392;13.092;2022-07-31T13:20:30;1.37;;;1.37;;
27303;SDS011;14791;52.392;13.092;2022-07-31T13:22:59;1.32;;;1.32;;
27303;SDS011;14791;52.392;13.092;2022-07-31T13:25:28;1.50;;;1.50;;
27303;SDS011;14791;52.392;13.092;2022-07-31T13:27:58;1.30;;;1.30;;
27303;SDS011;14791;52.392;13.092;2022-07-31T13:30:27;1.30;;;1.30;;
27303;SDS011;14791;52.392;13.092;2022-07-31T13:32:56;1.52;;;1.52;;
27303;SDS011;14791;52.392;13.092;2022-07-31T13:35:24;3.22;;;1.52;;
27303;SDS011;14791;52.392;13.092;2022-07-31T13:37:53;1.37;;;1.37;;
27303;SDS011;14791;52.392;13.092;2022-07-31T13:40:23;1.40;;;1.40;;
27303;SDS011;14791;52.392;13.092;2022-07-31T13:43:11;1.30;;;1.30;;
27303;SDS011;14791;52.392;13.092;2022-07-31T13:45:40;1.30;;;1.30;;
27303;SDS011;14791;52.392;13.092;2022-07-31T13:48:09;1.30;;;1.30;;
27303;SDS011;14791;52.392;13.092;2022-07-31T13:50:38;1.32;;;1.32;;
27303;SDS011;14791;52.392;13.092;2022-07-31T13:53:08;1.42;;;1.42;;
27303;SDS011;14791;52.392;13.092;2022-07-31T13:55:37;2.30;;;2.30;;
27303;SDS011;14791;52.392;13.092;2022-07-31T13:58:06;1.52;;;1.52;;
27303;SDS011;14791;52.392;13.092;2022-07-31T14:00:35;1.32;;;1.32;;
27303;SDS011;14791;52.392;13.092;2022-07-31T14:03:04;1.52;;;1.52;;
27303;SDS011;14791;52.392;13.092;2022-07-31T14:05:33;1.22;;;1.22;;
27303;SDS011;14791;52.392;13.092;2022-07-31T14:08:02;1.20;;;1.20;;
27303;SDS011;14791;52.392;13.092;2022-07-31T14:10:31;1.30;;;1.30;;
27303;SDS011;14791;52.392;13.092;2022-07-31T14:13:00;1.22;;;1.22;;
27303;SDS011;14791;52.392;13.092;2022-07-31T14:15:28;1.10;;;1.10;;
27303;SDS011;14791;52.392;13.092;2022-07-31T14:17:57;3.02;;;1.60;;
27303;SDS011;14791;52.392;13.092;2022-07-31T14:20:26;1.55;;;1.45;;
27303;SDS011;14791;52.392;13.092;2022-07-31T14:22:57;1.60;;;1.60;;
27303;SDS011;14791;52.392;13.092;2022-07-31T14:25:29;1.30;;;1.27;;
27303;SDS011;14791;52.392;13.092;2022-07-31T14:28:03;1.45;;;1.45;;
27303;SDS011;14791;52.392;13.092;2022-07-31T14:30:33;1.40;;;1.40;;
27303;SDS011;14791;52.392;13.092;2022-07-31T14:33:03;1.20;;;1.20;;
27303;SDS011;14791;52.392;13.092;2022-07-31T14:35:32;2.15;;;1.40;;
27303;SDS011;14791;52.392;13.092;2022-07-31T14:38:01;1.02;;;1.02;;
27303;SDS011;14791;52.392;13.092;2022-07-31T14:40:30;1.50;;;1.40;;
27303;SDS011;14791;52.392;13.092;2022-07-31T14:42:59;1.00;;;1.00;;
27303;SDS011;14791;52.392;13.092;2022-07-31T14:45:28;1.20;;;1.20;;
27303;SDS011;14791;52.392;13.092;2022-07-31T14:47:57;1.17;;;1.17;;
27303;SDS011;14791;52.392;13.092;2022-07-31T14:50:26;1.42;;;1.42;;
27303;SDS011;14791;52.392;13.092;2022-07-31T14:52:55;1.00;;;1.00;;
27303;SDS011;14791;52.392;13.092;2022-07-31T14:55:24;1.00;;;1.00;;
27303;SDS011;14791;52.392;13.092;2022-07-31T14:57:55;1.15;;;1.15;;
27303;SDS011;14791;52.392;13.092;2022-07-31T15:00:24;1.10;;;1.10;;
27303;SDS011;14791;52.392;13.092;2022-07-31T15:02:53;1.10;;;1.10;;
27303;SDS011;14791;52.392;13.092;2022-07-31T15:05:22;0.80;;;0.80;;
27303;SDS011;14791;52.392;13.092;2022-07-31T15:07:50;1.42;;;1.42;;